Terminal Aerodrome Forecast
Issued by NWS Los Angeles, CA

Home | Current Version | Previous Version | Text Only | Print | Product List | Glossary On
Versions: 1 2 3 4 5 6 7 8 9 10 11 12 13 14 15 16 17 18
368
FTUS46 KLOX 232019 AAA
TAFSMX
TAF AMD
KSMX 232019Z 2320/2418 31008KT P6SM OVC012
     FM232200 31012KT P6SM SCT015
     FM240200 31008KT P6SM OVC006
     FM240800 VRB03KT 2SM BR OVC004
     FM241700 VRB03KT P6SM OVC010=

USA.gov is the U.S. government's official web portal to all federal, state and local government web resources and services.